Time;durP1;ratioP1;P1;durP2;ratioP2;P2;SDS_P1;SDS_P2;PMS_P1;PMS_P2;Temp;Humidity;BMP_temperature;BMP_pressure;BME280_temperature;BME280_humidity;BME280_pressure;Samples;Min_cycle;Max_cycle;Signal;HPM_P1;HPM_P2
2021/07/02 00:00:01;;;;;;;78.03;74.23;;;;;;;;;;4991664;28;20961;-67
2021/07/02 00:02:28;;;;;;;79.80;75.90;;;;;;;;;;4989687;28;20462;-67
2021/07/02 00:04:55;;;;;;;77.73;73.67;;;;;;;;;;4991525;28;20477;-67
2021/07/02 00:07:22;;;;;;;74.87;71.27;;;;;;;;;;4990690;28;20490;-66
2021/07/02 00:09:50;;;;;;;79.50;75.67;;;;;;;;;;4992225;28;20498;-67
2021/07/02 00:12:17;;;;;;;79.30;75.40;;;;;;;;;;4991291;28;20471;-66
2021/07/02 00:14:45;;;;;;;76.67;73.00;;;;;;;;;;4992456;28;20455;-67
2021/07/02 00:17:12;;;;;;;78.50;74.57;;;;;;;;;;4989280;28;20989;-66
2021/07/02 00:19:39;;;;;;;80.70;76.80;;;;;;;;;;4991039;28;20451;-66
2021/07/02 00:22:06;;;;;;;75.30;71.70;;;;;;;;;;4993850;28;20833;-67
2021/07/02 00:24:34;;;;;;;75.70;72.00;;;;;;;;;;4994260;28;20467;-67
2021/07/02 00:27:01;;;;;;;78.37;74.70;;;;;;;;;;4981380;28;20494;-67
2021/07/02 00:29:28;;;;;;;74.90;71.10;;;;;;;;;;4978477;28;20482;-67
2021/07/02 00:31:57;;;;;;;73.63;69.83;;;;;;;;;;4995120;28;20553;-67
2021/07/02 00:34:24;;;;;;;72.90;69.47;;;;;;;;;;4995509;28;20454;-68
2021/07/02 00:36:51;;;;;;;78.40;74.70;;;;;;;;;;4996308;28;20490;-68
2021/07/02 00:39:18;;;;;;;75.70;71.90;;;;;;;;;;4993945;28;20835;-68
2021/07/02 00:41:45;;;;;;;76.43;72.83;;;;;;;;;;4982083;28;20455;-67
2021/07/02 00:44:12;;;;;;;81.77;77.90;;;;;;;;;;4976453;28;20458;-70
2021/07/02 00:46:39;;;;;;;83.93;79.77;;;;;;;;;;4994514;28;20824;-67
2021/07/02 00:49:09;;;;;;;86.93;82.93;;;;;;;;;;4992837;28;20473;-66
2021/07/02 00:51:37;;;;;;;81.83;78.10;;;;;;;;;;4995559;28;20930;-67
2021/07/02 00:54:04;;;;;;;82.00;78.17;;;;;;;;;;4994866;28;20496;-69
2021/07/02 00:56:31;;;;;;;78.87;74.87;;;;;;;;;;4995333;28;20479;-67
2021/07/02 00:58:58;;;;;;;81.13;77.27;;;;;;;;;;4994447;28;20478;-66
2021/07/02 01:01:25;;;;;;;80.57;76.73;;;;;;;;;;4994053;28;20468;-67
2021/07/02 01:03:52;;;;;;;80.23;76.30;;;;;;;;;;4993924;28;20537;-66
2021/07/02 01:06:21;;;;;;;80.47;76.37;;;;;;;;;;4994085;28;21025;-67
2021/07/02 01:08:48;;;;;;;80.00;76.20;;;;;;;;;;4995466;28;20945;-66
2021/07/02 01:11:15;;;;;;;89.60;85.13;;;;;;;;;;4995093;28;20486;-67
2021/07/02 01:13:43;;;;;;;85.77;81.20;;;;;;;;;;4994295;28;20472;-69
2021/07/02 01:16:10;;;;;;;85.00;80.90;;;;;;;;;;4993456;28;20467;-66
2021/07/02 01:18:40;;;;;;;88.17;83.57;;;;;;;;;;4990894;28;20457;-65
2021/07/02 01:21:08;;;;;;;88.30;84.10;;;;;;;;;;4978918;28;20462;-66
2021/07/02 01:23:35;;;;;;;88.43;84.27;;;;;;;;;;4994508;28;20476;-66
2021/07/02 01:26:03;;;;;;;87.10;82.93;;;;;;;;;;4994365;28;21008;-65
2021/07/02 01:28:30;;;;;;;83.63;79.13;;;;;;;;;;4994489;28;20466;-67
2021/07/02 01:30:57;;;;;;;82.07;78.07;;;;;;;;;;4983138;28;20497;-68
2021/07/02 01:33:24;;;;;;;82.00;77.83;;;;;;;;;;4990417;28;20836;-67
2021/07/02 01:35:51;;;;;;;80.63;76.63;;;;;;;;;;4994022;28;20561;-66
2021/07/02 01:38:19;;;;;;;77.43;73.40;;;;;;;;;;4993939;28;20490;-69
2021/07/02 01:40:47;;;;;;;77.70;73.67;;;;;;;;;;4990998;28;20447;-69
2021/07/02 01:43:14;;;;;;;76.03;71.93;;;;;;;;;;4992631;28;20473;-69
2021/07/02 01:45:41;;;;;;;78.77;74.80;;;;;;;;;;4993859;28;20967;-68
2021/07/02 01:48:08;;;;;;;72.23;68.37;;;;;;;;;;4993734;28;20498;-67
2021/07/02 01:50:35;;;;;;;72.37;68.57;;;;;;;;;;4993799;28;20506;-68
2021/07/02 01:53:02;;;;;;;72.77;69.17;;;;;;;;;;4994404;28;20451;-66
2021/07/02 01:55:31;;;;;;;74.97;71.17;;;;;;;;;;4992170;28;20852;-68
2021/07/02 01:57:58;;;;;;;77.07;73.07;;;;;;;;;;4992832;28;20490;-69
2021/07/02 02:00:25;;;;;;;73.63;69.93;;;;;;;;;;4994822;28;20451;-66
2021/07/02 02:02:52;;;;;;;72.90;69.30;;;;;;;;;;4993268;28;20472;-66
2021/07/02 02:05:19;;;;;;;68.93;65.33;;;;;;;;;;4994375;28;20824;-65
2021/07/02 02:07:46;;;;;;;69.93;66.23;;;;;;;;;;4987533;28;20491;-67
2021/07/02 02:10:13;;;;;;;70.00;66.00;;;;;;;;;;4989873;28;20478;-67
2021/07/02 02:12:42;;;;;;;72.43;68.93;;;;;;;;;;4990820;28;20481;-67
2021/07/02 02:15:09;;;;;;;75.73;71.90;;;;;;;;;;4994373;28;20458;-65
2021/07/02 02:17:36;;;;;;;74.67;70.50;;;;;;;;;;4993789;28;20488;-65
2021/07/02 02:20:05;;;;;;;74.40;70.70;;;;;;;;;;4994696;28;20449;-67
2021/07/02 02:22:32;;;;;;;72.27;68.67;;;;;;;;;;4992569;28;20467;-66
2021/07/02 02:24:59;;;;;;;72.37;68.57;;;;;;;;;;4985597;28;20469;-67
2021/07/02 02:27:26;;;;;;;68.30;64.90;;;;;;;;;;4992652;28;20490;-67
2021/07/02 02:29:55;;;;;;;67.80;64.03;;;;;;;;;;4992839;28;20996;-67
2021/07/02 02:32:22;;;;;;;68.47;64.87;;;;;;;;;;4991337;28;20494;-67
2021/07/02 02:34:49;;;;;;;66.03;62.57;;;;;;;;;;4993974;28;20455;-67
2021/07/02 02:37:16;;;;;;;65.50;62.10;;;;;;;;;;4992903;28;20497;-67
2021/07/02 02:39:43;;;;;;;68.87;65.30;;;;;;;;;;4992766;28;20455;-67
2021/07/02 02:42:10;;;;;;;66.57;63.10;;;;;;;;;;4992881;28;20466;-68
2021/07/02 02:44:37;;;;;;;66.20;62.80;;;;;;;;;;4992397;28;20477;-67
2021/07/02 02:47:06;;;;;;;61.17;57.87;;;;;;;;;;5033088;23;20509;-69
2021/07/02 02:49:33;;;;;;;61.60;58.33;;;;;;;;;;4976300;28;20494;-69
2021/07/02 02:52:00;;;;;;;59.73;56.67;;;;;;;;;;4985486;28;20816;-69
2021/07/02 02:54:27;;;;;;;60.30;57.20;;;;;;;;;;4991099;28;20470;-69
2021/07/02 02:57:07;;;;;;;57.20;54.20;;;;;;;;;;4983188;28;20454;-69
2021/07/02 02:59:35;;;;;;;57.60;54.70;;;;;;;;;;4960822;28;20467;-69
2021/07/02 03:02:02;;;;;;;58.30;55.30;;;;;;;;;;4965732;28;20467;-67
2021/07/02 03:04:31;;;;;;;57.67;54.37;;;;;;;;;;4962643;28;20464;-68
2021/07/02 03:06:58;;;;;;;59.27;56.13;;;;;;;;;;4957949;28;20474;-68
2021/07/02 03:09:25;;;;;;;57.93;54.90;;;;;;;;;;4957081;28;20983;-69
2021/07/02 03:11:52;;;;;;;59.77;56.37;;;;;;;;;;4958245;28;20500;-70
2021/07/02 03:14:20;;;;;;;58.40;55.20;;;;;;;;;;4951020;29;20453;-69
2021/07/02 03:16:47;;;;;;;59.40;56.00;;;;;;;;;;4970839;28;20680;-70
2021/07/02 03:19:14;;;;;;;57.67;54.43;;;;;;;;;;4959646;28;20479;-69
2021/07/02 03:21:42;;;;;;;58.27;55.07;;;;;;;;;;4967541;28;20478;-69
2021/07/02 03:24:10;;;;;;;58.90;55.80;;;;;;;;;;4955143;29;20472;-71
2021/07/02 03:26:37;;;;;;;57.43;54.30;;;;;;;;;;4955008;28;20455;-69
2021/07/02 03:29:04;;;;;;;56.33;52.73;;;;;;;;;;4946731;29;20987;-69
2021/07/02 03:31:31;;;;;;;53.20;50.20;;;;;;;;;;4954981;28;20484;-67
2021/07/02 03:33:58;;;;;;;54.40;51.30;;;;;;;;;;4967389;28;20460;-71
2021/07/02 03:36:25;;;;;;;51.67;48.93;;;;;;;;;;4970957;28;20476;-69
2021/07/02 03:38:54;;;;;;;52.30;49.30;;;;;;;;;;4955471;29;20476;-70
2021/07/02 03:41:21;;;;;;;50.47;47.63;;;;;;;;;;4956425;28;20450;-70
2021/07/02 03:43:49;;;;;;;50.00;47.30;;;;;;;;;;4973211;28;20472;-70
2021/07/02 03:46:16;;;;;;;50.90;48.00;;;;;;;;;;4964994;28;20455;-69
2021/07/02 03:48:43;;;;;;;52.40;49.23;;;;;;;;;;4960477;28;20521;-69
2021/07/02 03:51:10;;;;;;;50.37;47.17;;;;;;;;;;4970737;28;20497;-67
2021/07/02 03:53:37;;;;;;;50.87;47.97;;;;;;;;;;4936256;28;20812;-69
2021/07/02 03:56:06;;;;;;;46.63;43.93;;;;;;;;;;4965006;28;20468;-68
2021/07/02 03:58:34;;;;;;;47.07;44.27;;;;;;;;;;4954323;28;20555;-69
2021/07/02 04:01:01;;;;;;;47.80;45.00;;;;;;;;;;4958646;28;20460;-69
2021/07/02 04:03:29;;;;;;;51.10;48.10;;;;;;;;;;4973010;28;20470;-68
2021/07/02 04:05:56;;;;;;;46.87;44.27;;;;;;;;;;4971994;28;20959;-67
2021/07/02 04:08:23;;;;;;;49.20;46.20;;;;;;;;;;4965948;28;20487;-69
2021/07/02 04:10:50;;;;;;;48.17;45.10;;;;;;;;;;4974024;28;21021;-70
2021/07/02 04:13:18;;;;;;;47.73;44.83;;;;;;;;;;4972747;28;20500;-70
2021/07/02 04:15:46;;;;;;;46.90;44.20;;;;;;;;;;4953880;28;20491;-68
2021/07/02 04:18:13;;;;;;;49.07;46.20;;;;;;;;;;4968190;28;20495;-69
2021/07/02 04:20:40;;;;;;;46.50;43.70;;;;;;;;;;4935617;29;20445;-69
2021/07/02 04:23:07;;;;;;;44.73;41.83;;;;;;;;;;4947368;28;20475;-69
2021/07/02 04:25:34;;;;;;;45.37;42.80;;;;;;;;;;4936194;29;20457;-69
2021/07/02 04:28:01;;;;;;;44.10;41.40;;;;;;;;;;4968199;28;21000;-69
2021/07/02 04:30:30;;;;;;;46.30;43.47;;;;;;;;;;4965696;28;20491;-70
2021/07/02 04:32:57;;;;;;;46.10;43.20;;;;;;;;;;4953692;28;20479;-69
2021/07/02 04:35:24;;;;;;;48.23;45.23;;;;;;;;;;4954079;29;20456;-69
2021/07/02 04:37:51;;;;;;;47.10;43.90;;;;;;;;;;4960355;28;20495;-69
2021/07/02 04:40:18;;;;;;;46.50;43.10;;;;;;;;;;4954145;28;20814;-70
2021/07/02 04:42:45;;;;;;;45.67;42.90;;;;;;;;;;4949705;28;20480;-69
2021/07/02 04:45:13;;;;;;;46.50;43.60;;;;;;;;;;4955145;29;20470;-69
2021/07/02 04:47:41;;;;;;;44.83;41.67;;;;;;;;;;4956898;28;20513;-70
2021/07/02 04:50:09;;;;;;;44.03;40.90;;;;;;;;;;4974341;28;20451;-69
2021/07/02 04:52:36;;;;;;;43.67;40.77;;;;;;;;;;4956747;28;20487;-70
2021/07/02 04:55:03;;;;;;;42.77;39.90;;;;;;;;;;4974341;28;20462;-70
2021/07/02 04:57:31;;;;;;;41.43;38.60;;;;;;;;;;4969716;28;20483;-70
2021/07/02 05:00:00;;;;;;;38.83;36.33;;;;;;;;;;4974113;28;20455;-69
2021/07/02 05:02:27;;;;;;;38.40;36.10;;;;;;;;;;4970722;28;20490;-70
2021/07/02 05:04:56;;;;;;;40.90;38.13;;;;;;;;;;4953292;28;20473;-69
2021/07/02 05:07:23;;;;;;;39.70;37.20;;;;;;;;;;4963799;28;20491;-69
2021/07/02 05:09:50;;;;;;;38.50;36.10;;;;;;;;;;4958068;29;20452;-69
2021/07/02 05:12:17;;;;;;;40.23;37.13;;;;;;;;;;4957017;28;20906;-69
2021/07/02 05:14:44;;;;;;;40.57;37.77;;;;;;;;;;4977918;28;20822;-68
2021/07/02 05:17:11;;;;;;;40.00;37.40;;;;;;;;;;4977532;28;20451;-67
2021/07/02 05:19:41;;;;;;;39.60;36.90;;;;;;;;;;4975824;28;20475;-68
2021/07/02 05:22:13;;;;;;;41.40;38.30;;;;;;;;;;4961916;28;20464;-67
2021/07/02 05:24:40;;;;;;;38.63;36.00;;;;;;;;;;4963376;28;20479;-67
2021/07/02 05:27:07;;;;;;;38.63;36.13;;;;;;;;;;4963627;28;20469;-68
2021/07/02 05:29:35;;;;;;;39.57;36.97;;;;;;;;;;4955837;28;20462;-69
2021/07/02 05:32:02;;;;;;;39.77;36.77;;;;;;;;;;4972300;28;20509;-70
2021/07/02 05:34:29;;;;;;;47.00;44.33;;;;;;;;;;4956025;28;20470;-69
2021/07/02 05:36:56;;;;;;;39.77;37.17;;;;;;;;;;4971293;28;20821;-69
2021/07/02 05:39:24;;;;;;;38.60;36.10;;;;;;;;;;4962657;28;20484;-69
2021/07/02 05:41:51;;;;;;;37.87;35.20;;;;;;;;;;4969559;28;20463;-69
2021/07/02 05:44:19;;;;;;;37.57;35.27;;;;;;;;;;4974598;28;20474;-68
2021/07/02 05:46:46;;;;;;;37.33;34.80;;;;;;;;;;4969225;28;20470;-69
2021/07/02 05:49:14;;;;;;;37.90;35.47;;;;;;;;;;4942897;28;20494;-69
2021/07/02 05:51:41;;;;;;;37.47;34.87;;;;;;;;;;4953920;28;20488;-69
2021/07/02 05:54:09;;;;;;;37.97;35.47;;;;;;;;;;4945097;28;20468;-70
2021/07/02 05:56:37;;;;;;;38.53;35.93;;;;;;;;;;4953882;29;20467;-69
2021/07/02 05:59:05;;;;;;;39.73;37.00;;;;;;;;;;4961204;28;20475;-69
2021/07/02 06:01:32;;;;;;;40.40;37.70;;;;;;;;;;4975978;28;20478;-69
2021/07/02 06:03:59;;;;;;;39.33;36.80;;;;;;;;;;4974790;28;20826;-69
2021/07/02 06:06:26;;;;;;;42.97;40.23;;;;;;;;;;4975766;28;20451;-69
2021/07/02 06:08:54;;;;;;;41.00;38.60;;;;;;;;;;4970694;28;20827;-69
2021/07/02 06:11:22;;;;;;;39.07;36.47;;;;;;;;;;4956759;29;20488;-69
2021/07/02 06:13:50;;;;;;;40.30;37.80;;;;;;;;;;4956994;28;20470;-69
2021/07/02 06:16:17;;;;;;;38.23;35.90;;;;;;;;;;4953127;29;20444;-69
2021/07/02 06:18:44;;;;;;;38.00;35.57;;;;;;;;;;4955888;28;21025;-69
2021/07/02 06:21:12;;;;;;;37.70;35.00;;;;;;;;;;4963956;28;20452;-69
2021/07/02 06:23:39;;;;;;;36.63;34.33;;;;;;;;;;4958370;28;20483;-69
2021/07/02 06:26:07;;;;;;;37.33;35.10;;;;;;;;;;4955308;29;21039;-69
2021/07/02 06:28:35;;;;;;;37.40;35.20;;;;;;;;;;4956519;28;20924;-69
2021/07/02 06:31:04;;;;;;;34.83;32.83;;;;;;;;;;4955924;29;20810;-67
2021/07/02 06:33:31;;;;;;;37.63;35.00;;;;;;;;;;4962439;28;20451;-67
2021/07/02 06:35:58;;;;;;;36.40;34.17;;;;;;;;;;4976077;28;20440;-68
2021/07/02 06:38:25;;;;;;;34.93;32.73;;;;;;;;;;4974641;28;20486;-68
2021/07/02 06:40:53;;;;;;;35.63;33.53;;;;;;;;;;4956723;29;20963;-68
2021/07/02 06:43:20;;;;;;;36.93;34.37;;;;;;;;;;4953918;28;20468;-67
2021/07/02 06:45:47;;;;;;;37.30;34.90;;;;;;;;;;4971522;28;20482;-67
2021/07/02 06:48:16;;;;;;;35.30;33.10;;;;;;;;;;4968182;28;20502;-67
2021/07/02 06:50:45;;;;;;;35.60;33.30;;;;;;;;;;4975801;28;20820;-68
2021/07/02 06:53:12;;;;;;;36.47;33.97;;;;;;;;;;4970564;28;21134;-70
2021/07/02 06:55:40;;;;;;;35.73;33.53;;;;;;;;;;4961041;28;20982;-70
2021/07/02 06:58:09;;;;;;;38.30;35.80;;;;;;;;;;4954359;28;20480;-69
2021/07/02 07:00:38;;;;;;;36.87;34.60;;;;;;;;;;4955053;29;20479;-70
2021/07/02 07:03:05;;;;;;;37.73;35.33;;;;;;;;;;4955324;28;20451;-69
2021/07/02 07:05:33;;;;;;;36.30;34.07;;;;;;;;;;4953723;28;20464;-70
2021/07/02 07:08:02;;;;;;;36.20;34.00;;;;;;;;;;4951609;28;20484;-69
2021/07/02 07:10:30;;;;;;;33.00;31.10;;;;;;;;;;4952101;28;20463;-70
2021/07/02 07:12:58;;;;;;;34.20;32.00;;;;;;;;;;4956958;28;20476;-69
2021/07/02 07:15:25;;;;;;;34.90;32.90;;;;;;;;;;4950028;29;20512;-70
2021/07/02 07:17:52;;;;;;;34.77;32.67;;;;;;;;;;4944140;28;20498;-70
2021/07/02 07:20:19;;;;;;;34.23;31.90;;;;;;;;;;4953780;29;20547;-67
2021/07/02 07:22:48;;;;;;;34.40;32.20;;;;;;;;;;4950370;28;20460;-67
2021/07/02 07:25:15;;;;;;;34.37;32.07;;;;;;;;;;4950182;29;20448;-68
2021/07/02 07:27:44;;;;;;;36.00;33.50;;;;;;;;;;4954172;28;20472;-68
2021/07/02 07:30:12;;;;;;;34.30;32.20;;;;;;;;;;4953495;28;20456;-65
2021/07/02 07:32:39;;;;;;;36.40;33.90;;;;;;;;;;4959038;28;20497;-64
2021/07/02 07:35:15;;;;;;;36.43;33.83;;;;;;;;;;4951667;28;20453;-67
2021/07/02 07:37:43;;;;;;;35.90;33.17;;;;;;;;;;4953057;28;20487;-67
2021/07/02 07:40:12;;;;;;;41.00;38.50;;;;;;;;;;4953672;29;20492;-69
2021/07/02 07:42:39;;;;;;;40.17;37.67;;;;;;;;;;4951727;29;20457;-63
2021/07/02 07:45:07;;;;;;;40.20;37.40;;;;;;;;;;4951120;28;20461;-62
2021/07/02 07:47:34;;;;;;;39.50;36.90;;;;;;;;;;4946221;28;20992;-63
2021/07/02 07:50:07;;;;;;;38.33;35.83;;;;;;;;;;4954835;29;20451;-62
2021/07/02 07:52:43;;;;;;;38.60;36.10;;;;;;;;;;4955287;28;20563;-62
2021/07/02 07:55:12;;;;;;;38.33;35.83;;;;;;;;;;4943372;28;20535;-64
2021/07/02 07:57:39;;;;;;;39.70;37.20;;;;;;;;;;4956526;28;20828;-64
2021/07/02 08:00:07;;;;;;;38.90;36.20;;;;;;;;;;4953572;28;20846;-67
2021/07/02 08:02:34;;;;;;;39.43;36.93;;;;;;;;;;4951816;29;21117;-65
2021/07/02 08:05:01;;;;;;;34.40;32.30;;;;;;;;;;4947491;29;20967;-65
2021/07/02 08:07:28;;;;;;;40.67;37.97;;;;;;;;;;4953756;28;20512;-67
2021/07/02 08:09:55;;;;;;;41.80;38.60;;;;;;;;;;4953709;28;20456;-69
2021/07/02 08:12:24;;;;;;;39.73;36.87;;;;;;;;;;4952781;28;20494;-69
2021/07/02 08:14:51;;;;;;;41.47;38.53;;;;;;;;;;4949994;28;20468;-69
2021/07/02 08:17:18;;;;;;;41.47;38.33;;;;;;;;;;4953239;29;20461;-69
2021/07/02 08:19:45;;;;;;;39.37;36.17;;;;;;;;;;4953281;29;20454;-69
2021/07/02 08:22:12;;;;;;;38.73;35.93;;;;;;;;;;4953879;28;20463;-66
2021/07/02 08:24:39;;;;;;;36.93;34.73;;;;;;;;;;4954121;29;20527;-66
2021/07/02 08:27:08;;;;;;;39.37;36.87;;;;;;;;;;4954506;29;20456;-67
2021/07/02 08:29:35;;;;;;;38.23;35.60;;;;;;;;;;4949694;29;20463;-66
2021/07/02 08:32:02;;;;;;;38.00;35.47;;;;;;;;;;4943008;29;20504;-67
2021/07/02 08:34:30;;;;;;;38.90;36.30;;;;;;;;;;4952338;29;20453;-66
2021/07/02 08:36:57;;;;;;;34.47;32.20;;;;;;;;;;4955135;29;20460;-66
2021/07/02 08:39:25;;;;;;;34.90;32.67;;;;;;;;;;4954846;28;20841;-67
2021/07/02 08:41:52;;;;;;;33.50;31.20;;;;;;;;;;4935363;29;20463;-69
2021/07/02 08:44:19;;;;;;;33.70;31.60;;;;;;;;;;4939442;29;20543;-69
2021/07/02 08:46:48;;;;;;;33.07;30.97;;;;;;;;;;4938528;29;20804;-69
2021/07/02 08:49:15;;;;;;;32.90;30.67;;;;;;;;;;5010984;23;20575;-66
2021/07/02 08:51:42;;;;;;;31.00;29.10;;;;;;;;;;5010675;28;20453;-66
2021/07/02 08:54:14;;;;;;;30.53;28.73;;;;;;;;;;5008332;28;20450;-66
2021/07/02 08:56:42;;;;;;;30.50;28.70;;;;;;;;;;5014832;28;20462;-66
2021/07/02 08:59:09;;;;;;;32.07;29.90;;;;;;;;;;5010598;28;20470;-68
2021/07/02 09:01:42;;;;;;;31.90;29.90;;;;;;;;;;4995049;28;20832;-68
2021/07/02 09:04:20;;;;;;;30.90;29.03;;;;;;;;;;4995227;28;20537;-65
2021/07/02 09:07:01;;;;;;;29.47;27.87;;;;;;;;;;4999653;28;20460;-68
2021/07/02 09:09:43;;;;;;;30.70;28.80;;;;;;;;;;4999373;28;20480;-68
2021/07/02 09:12:10;;;;;;;30.03;28.13;;;;;;;;;;4994595;28;20486;-68
2021/07/02 09:14:37;;;;;;;32.33;30.33;;;;;;;;;;4995161;28;20454;-68
2021/07/02 09:17:09;;;;;;;29.90;28.13;;;;;;;;;;4995738;28;20545;-68
2021/07/02 09:19:37;;;;;;;32.53;30.30;;;;;;;;;;5007190;28;20473;-68
2021/07/02 09:22:14;;;;;;;31.20;29.30;;;;;;;;;;5014097;28;20445;-66
2021/07/02 09:24:43;;;;;;;31.70;29.67;;;;;;;;;;4990493;28;20503;-64
2021/07/02 09:27:23;;;;;;;32.83;30.60;;;;;;;;;;4995387;28;20501;-65
2021/07/02 09:30:01;;;;;;;31.03;28.93;;;;;;;;;;4987681;28;20532;-64
2021/07/02 09:32:29;;;;;;;28.33;26.53;;;;;;;;;;4985493;28;20470;-65
2021/07/02 09:34:59;;;;;;;29.10;27.30;;;;;;;;;;4988955;28;20462;-65
2021/07/02 09:37:28;;;;;;;27.80;26.00;;;;;;;;;;4994213;28;20828;-64
2021/07/02 09:39:55;;;;;;;26.90;25.20;;;;;;;;;;4993901;28;20477;-65
2021/07/02 09:42:23;;;;;;;28.60;27.00;;;;;;;;;;4994628;28;20447;-64
2021/07/02 09:45:03;;;;;;;28.33;26.73;;;;;;;;;;4994235;28;20461;-65
2021/07/02 09:47:31;;;;;;;27.50;25.90;;;;;;;;;;4994328;28;20469;-65
2021/07/02 09:52:52;;;;;;;28.97;27.03;;;;;;;;;;5108818;27;20519;-64
2021/07/02 09:55:19;;;;;;;31.40;29.40;;;;;;;;;;5087585;28;20979;-65
2021/07/02 09:57:47;;;;;;;26.70;25.00;;;;;;;;;;5089008;28;20446;-65
2021/07/02 10:00:15;;;;;;;25.87;24.27;;;;;;;;;;5088448;28;20450;-64
2021/07/02 10:02:53;;;;;;;26.37;24.77;;;;;;;;;;5088706;28;20525;-63
2021/07/02 10:05:20;;;;;;;25.40;23.80;;;;;;;;;;5088454;28;20444;-64
2021/07/02 10:07:57;;;;;;;26.53;24.83;;;;;;;;;;5088362;28;20454;-62
2021/07/02 10:10:25;;;;;;;25.50;24.00;;;;;;;;;;5088306;28;20473;-62
2021/07/02 10:12:53;;;;;;;25.17;23.63;;;;;;;;;;5088685;28;20449;-63
2021/07/02 10:15:20;;;;;;;24.93;23.40;;;;;;;;;;5088729;28;20447;-61
2021/07/02 10:17:48;;;;;;;26.10;24.50;;;;;;;;;;5087880;28;20934;-66
2021/07/02 10:20:15;;;;;;;25.77;24.13;;;;;;;;;;5087877;28;20454;-65
2021/07/02 10:22:43;;;;;;;26.10;24.30;;;;;;;;;;5088124;28;20826;-65
2021/07/02 10:25:12;;;;;;;27.13;25.27;;;;;;;;;;5088501;28;20446;-62
2021/07/02 10:27:40;;;;;;;27.13;25.53;;;;;;;;;;5088214;28;20843;-63
2021/07/02 10:30:08;;;;;;;25.70;24.10;;;;;;;;;;5088484;28;20446;-64
2021/07/02 10:32:36;;;;;;;26.40;24.60;;;;;;;;;;5088318;28;20478;-64
2021/07/02 10:35:04;;;;;;;27.27;25.57;;;;;;;;;;5088588;28;20524;-62
2021/07/02 10:37:32;;;;;;;27.60;25.60;;;;;;;;;;5088260;28;20450;-64
2021/07/02 10:40:00;;;;;;;25.40;23.90;;;;;;;;;;5088455;28;20479;-63
2021/07/02 10:42:31;;;;;;;26.00;24.20;;;;;;;;;;5087626;28;20535;-63
2021/07/02 10:45:08;;;;;;;25.73;23.93;;;;;;;;;;5088274;28;20446;-63
2021/07/02 10:47:48;;;;;;;25.80;24.37;;;;;;;;;;5088136;28;20446;-65
2021/07/02 10:50:30;;;;;;;26.40;24.70;;;;;;;;;;5087764;28;20477;-65
2021/07/02 10:53:23;;;;;;;25.53;24.10;;;;;;;;;;5087793;28;20492;-65
2021/07/02 10:55:50;;;;;;;24.60;23.17;;;;;;;;;;5088279;28;20800;-64
2021/07/02 10:58:20;;;;;;;24.43;22.93;;;;;;;;;;5087826;28;20565;-65
2021/07/02 11:01:06;;;;;;;25.00;23.50;;;;;;;;;;5087672;28;20446;-65
2021/07/02 11:03:33;;;;;;;25.93;24.33;;;;;;;;;;5077584;28;20547;-65
2021/07/02 11:06:08;;;;;;;24.73;23.30;;;;;;;;;;5074338;28;20481;-68
2021/07/02 11:08:45;;;;;;;24.40;22.70;;;;;;;;;;5075043;28;20470;-66
2021/07/02 11:11:12;;;;;;;24.27;22.77;;;;;;;;;;5074102;28;20489;-65
2021/07/02 11:13:58;;;;;;;24.13;22.73;;;;;;;;;;5073851;28;20451;-65
2021/07/02 11:16:26;;;;;;;24.80;23.40;;;;;;;;;;5074353;28;20439;-65
2021/07/02 11:18:53;;;;;;;25.30;23.77;;;;;;;;;;5073678;28;20471;-65
2021/07/02 11:21:20;;;;;;;24.40;22.90;;;;;;;;;;5074066;28;20443;-64
2021/07/02 11:23:48;;;;;;;24.30;22.70;;;;;;;;;;5073496;28;20470;-65
2021/07/02 11:26:48;;;;;;;25.10;23.47;;;;;;;;;;5074033;28;20450;-64
2021/07/02 11:29:17;;;;;;;24.77;23.37;;;;;;;;;;5040187;28;20489;-65
2021/07/02 11:31:45;;;;;;;24.27;22.87;;;;;;;;;;5073322;28;20489;-65
2021/07/02 11:34:15;;;;;;;24.00;22.63;;;;;;;;;;5073686;28;20442;-65
2021/07/02 11:36:57;;;;;;;24.83;23.23;;;;;;;;;;5073394;28;20942;-65
2021/07/02 11:39:24;;;;;;;24.40;22.90;;;;;;;;;;5073392;28;20467;-65
2021/07/02 11:41:52;;;;;;;23.73;22.40;;;;;;;;;;5073561;28;20439;-65
2021/07/02 11:44:19;;;;;;;24.67;23.27;;;;;;;;;;5073186;28;20465;-65
2021/07/02 11:46:57;;;;;;;24.70;23.20;;;;;;;;;;5073538;28;20445;-65
2021/07/02 11:49:25;;;;;;;24.50;23.00;;;;;;;;;;5073850;28;20935;-65
2021/07/02 11:51:52;;;;;;;24.20;22.80;;;;;;;;;;5072186;28;20485;-66
2021/07/02 11:54:20;;;;;;;24.47;23.07;;;;;;;;;;5072230;28;20814;-65
2021/07/02 11:56:48;;;;;;;23.60;22.30;;;;;;;;;;5073106;28;20459;-65
2021/07/02 11:59:16;;;;;;;24.43;23.03;;;;;;;;;;5073198;28;20475;-65
2021/07/02 12:01:46;;;;;;;27.10;25.60;;;;;;;;;;5072955;28;20451;-65
2021/07/02 12:04:15;;;;;;;29.00;27.30;;;;;;;;;;5073014;28;20479;-65
2021/07/02 12:06:44;;;;;;;24.80;23.50;;;;;;;;;;5073235;28;20457;-65
2021/07/02 12:09:12;;;;;;;24.93;23.53;;;;;;;;;;5072942;28;20995;-65
2021/07/02 12:11:41;;;;;;;25.83;24.33;;;;;;;;;;5072634;28;20493;-65
2021/07/02 12:14:09;;;;;;;24.10;22.87;;;;;;;;;;5072231;28;20447;-64
2021/07/02 12:16:37;;;;;;;24.83;23.37;;;;;;;;;;5072628;28;20442;-64
2021/07/02 12:19:09;;;;;;;25.90;24.40;;;;;;;;;;5072990;28;20465;-65
2021/07/02 12:21:37;;;;;;;24.67;23.37;;;;;;;;;;5071993;28;20462;-63
2021/07/02 12:24:06;;;;;;;24.87;23.47;;;;;;;;;;5072606;28;20542;-65
2021/07/02 12:26:34;;;;;;;24.37;23.00;;;;;;;;;;5071842;28;20451;-65
2021/07/02 12:29:03;;;;;;;28.20;26.70;;;;;;;;;;5072196;28;20836;-65
2021/07/02 12:31:31;;;;;;;26.50;25.10;;;;;;;;;;5072447;28;20534;-65
2021/07/02 12:33:59;;;;;;;27.57;25.97;;;;;;;;;;5072293;28;20828;-65
2021/07/02 12:36:27;;;;;;;27.63;26.03;;;;;;;;;;5072215;28;20455;-66
2021/07/02 12:39:07;;;;;;;27.57;26.07;;;;;;;;;;5072386;28;20470;-65
2021/07/02 12:41:41;;;;;;;25.80;24.40;;;;;;;;;;5071848;28;20521;-65
2021/07/02 12:44:09;;;;;;;26.40;25.00;;;;;;;;;;5072482;28;20452;-65
2021/07/02 12:46:36;;;;;;;27.87;26.27;;;;;;;;;;5073039;28;20462;-65
2021/07/02 12:49:21;;;;;;;26.40;24.97;;;;;;;;;;5072441;28;20565;-65
2021/07/02 12:52:01;;;;;;;27.23;25.50;;;;;;;;;;5071540;28;20514;-66
2021/07/02 12:54:51;;;;;;;27.40;25.80;;;;;;;;;;5071959;28;20447;-68
2021/07/02 12:57:20;;;;;;;26.87;24.97;;;;;;;;;;5071475;28;20435;-64
2021/07/02 12:59:47;;;;;;;26.43;24.83;;;;;;;;;;5071962;28;20485;-65
2021/07/02 13:02:23;;;;;;;25.80;24.10;;;;;;;;;;5072031;28;20483;-66
2021/07/02 13:04:50;;;;;;;27.07;25.47;;;;;;;;;;5071280;28;21224;-67
2021/07/02 13:07:17;;;;;;;26.00;24.60;;;;;;;;;;5071353;28;20457;-67
2021/07/02 13:09:45;;;;;;;25.73;24.23;;;;;;;;;;5071857;28;20481;-67
2021/07/02 13:12:14;;;;;;;25.00;23.57;;;;;;;;;;5071911;28;20486;-66
2021/07/02 13:14:42;;;;;;;27.13;25.40;;;;;;;;;;5071428;28;20831;-67
2021/07/02 13:17:10;;;;;;;26.20;24.70;;;;;;;;;;5071755;28;20447;-66
2021/07/02 13:19:37;;;;;;;26.07;24.57;;;;;;;;;;5071381;28;20478;-67
2021/07/02 13:22:14;;;;;;;26.47;24.77;;;;;;;;;;5071928;28;20549;-67
2021/07/02 13:24:41;;;;;;;26.13;24.53;;;;;;;;;;5071442;28;20446;-67
2021/07/02 13:27:10;;;;;;;25.83;24.13;;;;;;;;;;5071196;28;20937;-67
2021/07/02 13:29:38;;;;;;;25.63;24.13;;;;;;;;;;5071825;28;20470;-65
2021/07/02 13:32:06;;;;;;;26.27;24.77;;;;;;;;;;5071325;28;20841;-68
2021/07/02 13:34:40;;;;;;;26.70;25.13;;;;;;;;;;5071678;28;20816;-68
2021/07/02 13:37:07;;;;;;;26.50;24.60;;;;;;;;;;5071236;28;20454;-68
2021/07/02 13:39:40;;;;;;;25.63;24.13;;;;;;;;;;5071728;28;20557;-67
2021/07/02 13:42:08;;;;;;;23.63;22.33;;;;;;;;;;5071336;28;20478;-67
2021/07/02 13:44:37;;;;;;;25.17;23.70;;;;;;;;;;5071743;28;20442;-67
2021/07/02 13:47:05;;;;;;;25.40;23.90;;;;;;;;;;5071088;28;20477;-67
2021/07/02 13:49:33;;;;;;;25.20;23.70;;;;;;;;;;5071978;28;20462;-67
2021/07/02 13:52:00;;;;;;;24.43;23.10;;;;;;;;;;5070653;28;20493;-67
2021/07/02 13:54:27;;;;;;;24.70;23.40;;;;;;;;;;5071589;28;20457;-67
2021/07/02 13:56:55;;;;;;;25.03;23.63;;;;;;;;;;5071429;28;20450;-67
2021/07/02 13:59:22;;;;;;;24.63;23.33;;;;;;;;;;5071778;28;20473;-68
2021/07/02 14:01:51;;;;;;;23.63;22.33;;;;;;;;;;5069575;28;20981;-68
2021/07/02 14:04:18;;;;;;;23.20;21.97;;;;;;;;;;5071221;28;20457;-68
2021/07/02 14:06:45;;;;;;;23.80;22.53;;;;;;;;;;5071582;28;20926;-68
2021/07/02 14:09:13;;;;;;;22.03;20.80;;;;;;;;;;5070829;28;20471;-67
2021/07/02 14:11:40;;;;;;;25.47;24.00;;;;;;;;;;5071610;28;20478;-68
2021/07/02 14:14:08;;;;;;;25.23;23.83;;;;;;;;;;5058716;28;20462;-68
2021/07/02 14:16:36;;;;;;;22.50;21.20;;;;;;;;;;5051803;28;20444;-67
2021/07/02 14:19:05;;;;;;;23.73;22.03;;;;;;;;;;5068090;28;20593;-67
2021/07/02 14:21:33;;;;;;;23.43;22.13;;;;;;;;;;5071994;28;20443;-68
2021/07/02 14:24:01;;;;;;;23.13;21.93;;;;;;;;;;5070673;28;20971;-67
2021/07/02 14:26:28;;;;;;;23.47;22.20;;;;;;;;;;5071427;28;20457;-68